Pagrindinis puslapis
METAR-TAF:

METAR-TAF

Oro uostai :

Librevilio oro uostas

Librevilis, Gabonas

platuma: 00-27N, ilguma: 009-25E, Aukštis: 12 m

Dabartinis oras

Ataskaita buvo paskelbta 6 minutes, ne 16:00 UTC
Vėjas 10 kt iš Vakarų/Pietvakarių, svyruoja nuo Pietvakarių ir Vakarų/Šiaurės Vakarų
Temperatūra 28°C
Drėgmė 79%
Slėgis 1010 hPa
Matomumas 10 km arba daugiau
Išsisklaidę debesys ne aukštis 1100 ft
Mažai debesys ne aukštis 2000 ft, Liūtiniai kamuoliniai debesys.

METAR: FOOL 201600Z 25010KT 220V290 9999 SCT011 FEW020CB 28/24 Q1010 NOSIG

Laikas: 17:06 (16:06 UTC)

Prognozė

Ataskaita buvo paskelbta 5 valandos ir 6 minutes, ne 11:00 UTC
Prognozė galioja nuo 20 metu 12 UTC su 21 metu 18 UTC
Vėjas 6 kt iš Pietvakarių
Matomumas 10 km arba daugiau
Išsisklaidę debesys ne aukštis 1200 ft
Su prošvaistėmis ne aukštis 3300 ft
Tikimybė 30% :
Laikinai
nuo 21 metu 02 UTC su 21 metu 06 UTC
Matomumas: 4500 m
Su prošvaistėmis ne aukštis 800 ft
lietus, dulksna

TAF: FOOL 201100Z 2012/2118 22006KT 9999 SCT012 BKN033 PROB30 TEMPO 2102/2106 4500 RADZ BKN008

Orai ataskaitas ir orų prognozės (METAR, TAF).

turimą stotys yra geltonos ir raudonos taškus žemėlapyje.

Perkelti pele per norėdami pamatyti stoties vardą.

Tada spustelėkite, norėdami matyti oro stebėjimo ir prognozės.

Norėdami pakeisti žemėlapį: spustelėkite ant žalios mygtukų su juodo kryžiaus žemyn,; žalią mygtuką su brūkšneliu, jei norite nutolinti; arba žalių rodyklių gretimoms žemėlapius.


METAR-TAF: